Terminal Aerodrome Forecast
Issued by NWS

Home | Current Version | Previous Version | Text Only | Print | Product List | Glossary On
Versions: 1 2 3 4 5 6 7 8 9 10 11 12 13 14
000
FTUS46 KEKA 011700
TAFUKI
TAF
KUKI 011720Z 0118/0218 VRB03KT P6SM SKC
     FM012200 32008KT P6SM SKC
     FM020200 36004KT P6SM SKC=

USA.gov is the U.S. government's official web portal to all federal, state and local government web resources and services.